Time,TemperatureF,DewpointF,PressureIn,WindDirection,WindDirectionDegrees,WindSpeedMPH,WindSpeedGustMPH,Humidity,HourlyPrecipIn,Conditions,Clouds,dailyrainin,SoftwareType,DateUTC
2013-04-11 00:01:00,46.0,42.0,30.24,SE,142,4.0,8.0,86,0.00,,,0.27,,2013-04-11 07:01:00,
2013-04-11 00:12:00,46.0,42.0,30.24,SE,142,4.0,8.0,86,0.00,,,0.27,,2013-04-11 07:12:00,
2013-04-11 00:21:00,46.0,42.0,30.25,SE,135,3.0,9.0,86,0.00,,,0.27,,2013-04-11 07:21:00,
2013-04-11 00:31:00,46.0,42.0,30.25,SE,135,3.0,9.0,86,0.00,,,0.27,,2013-04-11 07:31:00,
2013-04-11 00:43:00,46.0,42.0,30.25,SE,135,3.0,9.0,86,0.00,,,0.27,,2013-04-11 07:43:00,
2013-04-11 00:52:00,46.0,42.0,30.26,SE,141,4.0,6.0,87,0.00,,,0.27,,2013-04-11 07:52:00,
2013-04-11 01:02:00,46.0,42.0,30.26,SE,141,4.0,6.0,87,0.00,,,0.27,,2013-04-11 08:02:00,
2013-04-11 01:12:00,46.0,42.0,30.26,SE,141,4.0,6.0,87,0.00,,,0.27,,2013-04-11 08:12:00,
2013-04-11 01:22:00,46.0,42.0,30.25,SSE,166,7.0,12.0,87,0.00,,,0.27,,2013-04-11 08:22:00,
2013-04-11 01:32:00,46.0,42.0,30.25,SSE,166,7.0,12.0,87,0.00,,,0.27,,2013-04-11 08:32:00,
2013-04-11 01:42:00,46.0,42.0,30.25,SSE,166,7.0,12.0,87,0.00,,,0.27,,2013-04-11 08:42:00,
2013-04-11 01:52:00,46.0,42.0,30.27,South,178,4.0,11.0,87,0.00,,,0.27,,2013-04-11 08:52:00,
2013-04-11 02:01:00,46.0,42.0,30.27,South,178,4.0,11.0,87,0.00,,,0.27,,2013-04-11 09:01:00,
2013-04-11 02:12:00,46.0,42.0,30.27,South,178,4.0,11.0,87,0.00,,,0.27,,2013-04-11 09:12:00,
2013-04-11 02:22:00,46.0,42.0,30.27,WSW,238,6.0,11.0,87,0.00,,,0.27,,2013-04-11 09:22:00,
2013-04-11 02:32:00,46.0,42.0,30.27,WSW,238,6.0,11.0,87,0.00,,,0.27,,2013-04-11 09:32:00,
2013-04-11 02:43:00,46.0,42.0,30.27,WSW,238,6.0,11.0,87,0.00,,,0.27,,2013-04-11 09:43:00,
2013-04-11 02:53:00,45.0,41.0,30.26,SSE,159,8.0,14.0,87,0.00,,,0.27,,2013-04-11 09:53:00,
2013-04-11 03:02:00,45.0,41.0,30.26,SSE,159,8.0,14.0,87,0.00,,,0.27,,2013-04-11 10:02:00,
2013-04-11 03:12:00,45.0,41.0,30.26,SW,231,7.0,11.0,87,0.00,,,0.27,,2013-04-11 10:12:00,
2013-04-11 03:22:00,45.0,41.0,30.26,SW,231,7.0,11.0,87,0.00,,,0.27,,2013-04-11 10:22:00,
2013-04-11 03:32:00,45.0,41.0,30.26,SW,231,7.0,11.0,87,0.00,,,0.27,,2013-04-11 10:32:00,
2013-04-11 03:42:00,45.0,41.0,30.26,SW,231,7.0,11.0,87,0.00,,,0.27,,2013-04-11 10:42:00,
2013-04-11 03:52:00,45.0,41.0,30.26,SW,217,6.0,12.0,87,0.00,,,0.27,,2013-04-11 10:52:00,
2013-04-11 04:02:00,45.0,41.0,30.26,SW,217,6.0,12.0,87,0.00,,,0.27,,2013-04-11 11:02:00,
2013-04-11 04:12:00,45.0,41.0,30.26,SW,217,6.0,12.0,87,0.00,,,0.27,,2013-04-11 11:12:00,
2013-04-11 04:22:00,45.0,42.0,30.25,WSW,246,8.0,12.0,88,0.00,,,0.27,,2013-04-11 11:22:00,
2013-04-11 04:31:00,45.0,42.0,30.25,WSW,246,8.0,12.0,88,0.00,,,0.27,,2013-04-11 11:31:00,
2013-04-11 04:43:00,45.0,42.0,30.25,WSW,246,8.0,12.0,88,0.00,,,0.27,,2013-04-11 11:43:00,
2013-04-11 04:52:00,45.0,42.0,30.25,SSE,165,8.0,16.0,88,0.00,,,0.27,,2013-04-11 11:52:00,
2013-04-11 05:01:00,45.0,42.0,30.25,SSE,165,8.0,16.0,88,0.00,,,0.27,,2013-04-11 12:01:00,
2013-04-11 05:12:00,45.0,42.0,30.25,SSE,165,8.0,16.0,88,0.00,,,0.27,,2013-04-11 12:12:00,
2013-04-11 05:22:00,44.0,41.0,30.25,SE,145,6.0,11.0,88,0.00,,,0.27,,2013-04-11 12:22:00,
2013-04-11 05:31:00,44.0,41.0,30.25,SE,145,6.0,11.0,88,0.00,,,0.27,,2013-04-11 12:31:00,
2013-04-11 05:43:00,44.0,41.0,30.25,SE,145,6.0,11.0,88,0.00,,,0.27,,2013-04-11 12:43:00,
2013-04-11 05:52:00,45.0,42.0,30.25,South,187,6.0,12.0,88,0.00,,,0.27,,2013-04-11 12:52:00,
2013-04-11 06:02:00,45.0,42.0,30.25,South,187,6.0,12.0,88,0.00,,,0.27,,2013-04-11 13:02:00,
2013-04-11 06:12:00,44.0,41.0,30.25,SW,217,3.0,10.0,89,0.00,,,0.27,,2013-04-11 13:12:00,
2013-04-11 06:22:00,44.0,41.0,30.25,SW,217,3.0,10.0,89,0.00,,,0.27,,2013-04-11 13:22:00,
2013-04-11 06:32:00,44.0,41.0,30.25,SW,217,3.0,10.0,89,0.00,,,0.27,,2013-04-11 13:32:00,
2013-04-11 06:43:00,44.0,41.0,30.25,SW,217,3.0,10.0,89,0.00,,,0.27,,2013-04-11 13:43:00,
2013-04-11 06:53:00,45.0,42.0,30.25,SW,228,7.0,12.0,89,0.00,,,0.27,,2013-04-11 13:53:00,
2013-04-11 07:01:00,45.0,42.0,30.25,SW,228,7.0,12.0,89,0.00,,,0.27,,2013-04-11 14:01:00,
2013-04-11 07:12:00,45.0,42.0,30.25,SW,228,7.0,12.0,89,0.00,,,0.27,,2013-04-11 14:12:00,
2013-04-11 07:22:00,45.0,42.0,30.26,SSW,212,4.0,11.0,89,0.00,,,0.26,,2013-04-11 14:22:00,
2013-04-11 07:32:00,45.0,42.0,30.26,SSW,212,4.0,11.0,89,0.00,,,0.26,,2013-04-11 14:32:00,
2013-04-11 07:42:00,45.0,42.0,30.26,SSW,212,4.0,11.0,89,0.00,,,0.26,,2013-04-11 14:42:00,
2013-04-11 07:52:00,45.0,42.0,30.27,SW,226,5.0,9.0,88,0.00,,,0.26,,2013-04-11 14:52:00,
2013-04-11 08:02:00,45.0,42.0,30.27,SW,226,5.0,9.0,88,0.00,,,0.26,,2013-04-11 15:02:00,
2013-04-11 08:12:00,45.0,42.0,30.27,West,266,4.0,7.0,89,0.00,,,0.18,,2013-04-11 15:12:00,
2013-04-11 08:21:00,45.0,42.0,30.27,West,266,4.0,7.0,89,0.00,,,0.18,,2013-04-11 15:21:00,
2013-04-11 08:32:00,45.0,42.0,30.27,West,266,4.0,7.0,89,0.00,,,0.18,,2013-04-11 15:32:00,
2013-04-11 08:43:00,45.0,42.0,30.27,West,266,4.0,7.0,89,0.00,,,0.18,,2013-04-11 15:43:00,
2013-04-11 08:53:00,44.0,42.0,30.28,West,281,2.0,5.0,93,0.00,,,0.18,,2013-04-11 15:53:00,
2013-04-11 09:02:00,44.0,42.0,30.28,West,281,2.0,5.0,93,0.00,,,0.18,,2013-04-11 16:02:00,
2013-04-11 09:12:00,44.0,42.0,30.28,West,281,2.0,5.0,93,0.00,,,0.18,,2013-04-11 16:12:00,
2013-04-11 09:22:00,43.0,41.0,30.28,SSW,207,2.0,4.0,94,0.00,,,0.09,,2013-04-11 16:22:00,
2013-04-11 09:32:00,43.0,41.0,30.28,SSW,207,2.0,4.0,94,0.00,,,0.09,,2013-04-11 16:32:00,
2013-04-11 09:42:00,43.0,41.0,30.28,SSW,207,2.0,4.0,94,0.00,,,0.09,,2013-04-11 16:42:00,
2013-04-11 09:52:00,44.0,43.0,30.27,SW,219,0.0,2.0,95,0.01,,,0.10,,2013-04-11 16:52:00,
2013-04-11 10:01:00,44.0,43.0,30.27,SW,219,0.0,2.0,95,0.01,,,0.10,,2013-04-11 17:01:00,
2013-04-11 10:12:00,44.0,43.0,30.27,SW,219,0.0,2.0,95,0.01,,,0.10,,2013-04-11 17:12:00,
2013-04-11 10:22:00,44.0,43.0,30.29,West,277,2.0,2.0,95,0.03,,,0.04,,2013-04-11 17:22:00,
2013-04-11 10:32:00,44.0,43.0,30.29,West,277,2.0,2.0,95,0.03,,,0.04,,2013-04-11 17:32:00,
2013-04-11 10:43:00,44.0,43.0,30.29,West,277,2.0,2.0,95,0.03,,,0.04,,2013-04-11 17:43:00,
2013-04-11 10:52:00,44.0,43.0,30.29,East,91,2.0,4.0,95,0.05,,,0.07,,2013-04-11 17:52:00,
2013-04-11 11:02:00,44.0,43.0,30.29,East,91,2.0,4.0,95,0.05,,,0.07,,2013-04-11 18:02:00,
2013-04-11 11:13:00,44.0,43.0,30.29,East,91,2.0,4.0,95,0.05,,,0.07,,2013-04-11 18:13:00,
2013-04-11 11:22:00,44.0,43.0,30.30,ESE,110,1.0,5.0,95,0.04,,,0.07,,2013-04-11 18:22:00,
2013-04-11 11:32:00,44.0,43.0,30.30,ESE,110,1.0,5.0,95,0.04,,,0.07,,2013-04-11 18:32:00,
2013-04-11 11:43:00,44.0,43.0,30.30,ESE,110,1.0,5.0,95,0.04,,,0.07,,2013-04-11 18:43:00,
2013-04-11 11:53:00,46.0,44.0,30.30,ENE,58,1.0,5.0,94,0.01,,,0.07,,2013-04-11 18:53:00,
2013-04-11 12:02:00,46.0,44.0,30.30,ENE,58,1.0,5.0,94,0.01,,,0.07,,2013-04-11 19:02:00,
2013-04-11 12:13:00,46.0,44.0,30.30,ENE,58,1.0,5.0,94,0.01,,,0.07,,2013-04-11 19:13:00,
2013-04-11 12:22:00,46.0,44.0,30.29,ENE,68,4.0,7.0,92,0.00,,,0.07,,2013-04-11 19:22:00,
2013-04-11 12:32:00,46.0,44.0,30.29,ENE,68,4.0,7.0,92,0.00,,,0.07,,2013-04-11 19:32:00,
2013-04-11 12:43:00,46.0,44.0,30.29,ENE,68,4.0,7.0,92,0.00,,,0.07,,2013-04-11 19:43:00,
2013-04-11 12:53:00,47.0,44.0,30.29,ENE,70,2.0,5.0,88,0.01,,,0.08,,2013-04-11 19:53:00,
2013-04-11 13:02:00,47.0,44.0,30.29,ENE,70,2.0,5.0,88,0.01,,,0.08,,2013-04-11 20:02:00,
2013-04-11 13:12:00,47.0,44.0,30.29,ENE,70,2.0,5.0,88,0.01,,,0.08,,2013-04-11 20:12:00,
2013-04-11 13:21:00,48.0,43.0,30.29,NNE,14,2.0,5.0,84,0.01,,,0.08,,2013-04-11 20:21:00,
2013-04-11 13:32:00,48.0,43.0,30.29,NNE,14,2.0,5.0,84,0.01,,,0.08,,2013-04-11 20:32:00,
2013-04-11 13:43:00,48.0,43.0,30.29,NNE,14,2.0,5.0,84,0.01,,,0.08,,2013-04-11 20:43:00,
2013-04-11 13:52:00,48.0,41.0,30.29,NE,46,2.0,5.0,77,0.00,,,0.08,,2013-04-11 20:52:00,
2013-04-11 14:01:00,48.0,41.0,30.29,NE,46,2.0,5.0,77,0.00,,,0.08,,2013-04-11 21:01:00,
2013-04-11 14:12:00,48.0,41.0,30.29,NE,46,2.0,5.0,77,0.00,,,0.08,,2013-04-11 21:12:00,
2013-04-11 14:22:00,48.0,41.0,30.29,NNW,340,3.0,6.0,77,0.00,,,0.08,,2013-04-11 21:22:00,
2013-04-11 14:32:00,48.0,41.0,30.29,NNW,340,3.0,6.0,77,0.00,,,0.08,,2013-04-11 21:32:00,
2013-04-11 14:43:00,48.0,41.0,30.29,NNW,340,3.0,6.0,77,0.00,,,0.08,,2013-04-11 21:43:00,
2013-04-11 14:53:00,49.0,41.0,30.28,ESE,121,1.0,3.0,75,0.00,,,0.08,,2013-04-11 21:53:00,
2013-04-11 15:02:00,49.0,41.0,30.28,ESE,121,1.0,3.0,75,0.00,,,0.08,,2013-04-11 22:02:00,
2013-04-11 15:13:00,49.0,41.0,30.28,ESE,121,1.0,3.0,75,0.00,,,0.08,,2013-04-11 22:13:00,
2013-04-11 15:22:00,49.0,40.0,30.28,NNE,25,3.0,6.0,71,0.00,,,0.08,,2013-04-11 22:22:00,
2013-04-11 15:32:00,49.0,40.0,30.28,NNE,25,3.0,6.0,71,0.00,,,0.08,,2013-04-11 22:32:00,
2013-04-11 15:44:00,49.0,40.0,30.28,NNE,25,3.0,6.0,71,0.00,,,0.08,,2013-04-11 22:44:00,
2013-04-11 15:53:00,50.0,40.0,30.27,NE,56,3.0,6.0,68,0.00,,,0.08,,2013-04-11 22:53:00,
2013-04-11 16:02:00,50.0,40.0,30.27,NE,56,3.0,6.0,68,0.00,,,0.08,,2013-04-11 23:02:00,
2013-04-11 16:12:00,50.0,40.0,30.27,NE,56,3.0,6.0,68,0.00,,,0.08,,2013-04-11 23:12:00,
2013-04-11 16:22:00,52.0,41.0,30.26,ENE,68,2.0,7.0,65,0.00,,,0.08,,2013-04-11 23:22:00,
2013-04-11 16:32:00,52.0,41.0,30.26,ENE,68,2.0,7.0,65,0.00,,,0.08,,2013-04-11 23:32:00,
2013-04-11 16:43:00,52.0,41.0,30.26,ENE,68,2.0,7.0,65,0.00,,,0.08,,2013-04-11 23:43:00,
2013-04-11 16:53:00,51.0,39.0,30.25,NW,324,1.0,4.0,63,0.00,,,0.08,,2013-04-11 23:53:00,
2013-04-11 17:02:00,51.0,39.0,30.25,NW,324,1.0,4.0,63,0.00,,,0.08,,2013-04-12 00:02:00,
2013-04-11 17:12:00,51.0,39.0,30.25,NW,324,1.0,4.0,63,0.00,,,0.08,,2013-04-12 00:12:00,
2013-04-11 17:21:00,51.0,38.0,30.25,NW,305,6.0,9.0,61,0.00,,,0.08,,2013-04-12 00:21:00,
2013-04-11 17:32:00,51.0,38.0,30.25,NW,305,6.0,9.0,61,0.00,,,0.08,,2013-04-12 00:32:00,
2013-04-11 17:43:00,51.0,38.0,30.25,NW,305,6.0,9.0,61,0.00,,,0.08,,2013-04-12 00:43:00,
2013-04-11 17:52:00,50.0,38.0,30.24,NNE,22,3.0,9.0,64,0.00,,,0.08,,2013-04-12 00:52:00,
2013-04-11 18:02:00,50.0,38.0,30.24,NNE,22,3.0,9.0,64,0.00,,,0.08,,2013-04-12 01:02:00,
2013-04-11 18:12:00,50.0,38.0,30.24,NNE,22,3.0,9.0,64,0.00,,,0.08,,2013-04-12 01:12:00,
2013-04-11 18:22:00,50.0,38.0,30.23,NNE,32,2.0,5.0,64,0.00,,,0.08,,2013-04-12 01:22:00,
2013-04-11 18:32:00,50.0,38.0,30.23,NNE,32,2.0,5.0,64,0.00,,,0.08,,2013-04-12 01:32:00,
2013-04-11 18:42:00,50.0,38.0,30.23,NNE,32,2.0,5.0,64,0.00,,,0.08,,2013-04-12 01:42:00,
2013-04-11 18:52:00,50.0,38.0,30.23,NNW,344,2.0,8.0,64,0.00,,,0.08,,2013-04-12 01:52:00,
2013-04-11 19:02:00,50.0,38.0,30.23,NNW,344,2.0,8.0,64,0.00,,,0.08,,2013-04-12 02:02:00,
2013-04-11 19:12:00,50.0,38.0,30.23,NNW,344,2.0,8.0,64,0.00,,,0.08,,2013-04-12 02:12:00,
2013-04-11 19:22:00,51.0,40.0,30.22,North,352,4.0,9.0,65,0.00,,,0.08,,2013-04-12 02:22:00,
2013-04-11 19:32:00,51.0,40.0,30.22,North,352,4.0,9.0,65,0.00,,,0.08,,2013-04-12 02:32:00,
2013-04-11 19:42:00,51.0,40.0,30.22,North,352,4.0,9.0,65,0.00,,,0.08,,2013-04-12 02:42:00,
2013-04-11 19:52:00,49.0,39.0,30.21,NNW,347,3.0,6.0,68,0.00,,,0.08,,2013-04-12 02:52:00,
2013-04-11 20:01:00,49.0,39.0,30.21,NNW,347,3.0,6.0,68,0.00,,,0.08,,2013-04-12 03:01:00,
2013-04-11 20:12:00,49.0,39.0,30.21,NNW,347,3.0,6.0,68,0.00,,,0.08,,2013-04-12 03:12:00,
2013-04-11 20:22:00,47.0,38.0,30.20,NE,37,2.0,5.0,70,0.00,,,0.08,,2013-04-12 03:22:00,
2013-04-11 20:32:00,47.0,38.0,30.20,NE,37,2.0,5.0,70,0.00,,,0.08,,2013-04-12 03:32:00,
2013-04-11 20:43:00,47.0,38.0,30.20,NE,37,2.0,5.0,70,0.00,,,0.08,,2013-04-12 03:43:00,
2013-04-11 20:53:00,47.0,37.0,30.21,NNE,20,4.0,9.0,68,0.00,,,0.08,,2013-04-12 03:53:00,
2013-04-11 21:02:00,47.0,37.0,30.21,NNE,20,4.0,9.0,68,0.00,,,0.08,,2013-04-12 04:02:00,
2013-04-11 21:13:00,47.0,37.0,30.21,NNE,20,4.0,9.0,68,0.00,,,0.08,,2013-04-12 04:13:00,
2013-04-11 21:22:00,46.0,37.0,30.21,NNE,17,1.0,4.0,70,0.00,,,0.08,,2013-04-12 04:22:00,
2013-04-11 21:33:00,46.0,37.0,30.21,NNE,17,1.0,4.0,70,0.00,,,0.08,,2013-04-12 04:33:00,
2013-04-11 21:43:00,46.0,37.0,30.21,NNE,17,1.0,4.0,70,0.00,,,0.08,,2013-04-12 04:43:00,
2013-04-11 21:52:00,46.0,37.0,30.21,NE,56,1.0,4.0,72,0.00,,,0.08,,2013-04-12 04:52:00,
2013-04-11 22:02:00,46.0,37.0,30.21,NE,56,1.0,4.0,72,0.00,,,0.08,,2013-04-12 05:02:00,
2013-04-11 22:12:00,46.0,37.0,30.21,NE,56,1.0,4.0,72,0.00,,,0.08,,2013-04-12 05:12:00,
2013-04-11 22:22:00,46.0,38.0,30.21,ENE,70,0.0,3.0,74,0.00,,,0.08,,2013-04-12 05:22:00,
2013-04-11 22:32:00,46.0,38.0,30.21,ENE,70,0.0,3.0,74,0.00,,,0.08,,2013-04-12 05:32:00,
2013-04-11 22:42:00,46.0,38.0,30.21,ENE,70,0.0,3.0,74,0.00,,,0.08,,2013-04-12 05:42:00,
2013-04-11 22:52:00,45.0,38.0,30.20,NNE,23,0.0,2.0,77,0.00,,,0.08,,2013-04-12 05:52:00,
2013-04-11 23:01:00,45.0,38.0,30.20,NNE,23,0.0,2.0,77,0.00,,,0.08,,2013-04-12 06:01:00,
2013-04-11 23:12:00,45.0,38.0,30.20,NNE,23,0.0,2.0,77,0.00,,,0.08,,2013-04-12 06:12:00,
2013-04-11 23:22:00,45.0,38.0,30.20,NE,53,0.0,1.0,77,0.00,,,0.08,,2013-04-12 06:22:00,
2013-04-11 23:31:00,45.0,38.0,30.20,NE,53,0.0,1.0,77,0.00,,,0.08,,2013-04-12 06:31:00,
2013-04-11 23:42:00,45.0,38.0,30.20,NE,53,0.0,1.0,77,0.00,,,0.08,,2013-04-12 06:42:00,
2013-04-11 23:52:00,45.0,39.0,30.19,NE,49,1.0,4.0,79,0.00,,,0.08,,2013-04-12 06:52:00,